LTBU/TEQ METAR and TAF weather

Enter ICAO airport designator
Station Type Date Time Source
LTBU METAR 2019/08/22 19:50 UTC NOAA

LTBU 221950Z 36011KT CAVOK 23/17 Q1018


Station Type Date Time Source
LTBU Decoded METAR 2019/08/22 19:50 UTC NOAA

Station name not available
Aug 22, 2019 - 03:50 PM EDT / 2019.08.22 1950 UTC
Wind: from the N (360 degrees) at 13 MPH (11 KT):0
Visibility: greater than 7 mile(s):0
Temperature: 73 F (23 C)
Dew Point: 62 F (17 C)
Relative Humidity: 68%
Pressure (altimeter): 30.06 in. Hg (1018 hPa)
ob: LTBU 221950Z 36011KT CAVOK 23/17 Q1018
cycle: 20

Station Type Date Time Source
LTBU TAF 2019/08/22 18:03 UTC NOAA

TAF LTBU 221640Z 2218/2318 02018KT CAVOK
BECMG 2219/2223 01008KT
BECMG 2303/2307 03020G32KT

Example: see airport list